Hauptseite
METAR-TAF:

METAR-TAF

Flughäfen :

Fliegerhorst Büchel

Büchel, Deutschland

Breite: 50-10N, Länge: 007-04E, Höhe: 478 m

Beobachtung

Neuester Wetterbericht von vor 51 Minuten, um 18:20 UTC
Wind 8 kt aus Ost/Nordost
Temperatur 1°C
Luftfeuchtigkeit 51%
Luftdruck 1022 hPa
Sichtweite 10 km oder mehr

METAR: ETSB 181820Z AUTO 06008KT 9999 // ////// 01/M08 Q1022 ///

Zeit: 20:11 (19:11 UTC)

Prognose

Neuester Wetterbericht von vor 32 Stunden und 11 Minuten, um 11:00 UTC
Gültige Prognose vom 17 um 12 UTC bis 17 um 21 UTC
Wind 12 kt aus Ost/Nordost, Böen bis zu 22 kt
Sichtweite 10 km oder mehr
Leicht bewölkt in der Höhe von 1500 ft

TAF: ETSB 171100Z 1712/1721 07012G22KT 9999 NSW FEW015 BY ETGL

Wetterbeobachtungen und Prognosen von mehr als 4000 Flughäfen (METAR und TAF Bericht).

Die verfügbaren Stationen werden durch gelbe und rote Markierungen auf der Karte dargestellt.

Führen Sie die Maus auf sie, um den Namen der Station zu sehen.

Darauf klicken, um die Beobachtung von Wetterbeobachtungen und Prognosen zu sehen.

Um die Karte zu ändern : klicken Sie auf den grünen Tasten mit einem schwarzen Kreuz Zum Vergrößern, auf den grünen Button mit einem Gedankenstrich zu verkleinern, oder auf die grünen Pfeile für benachbarte Karten.


METAR-TAF: